Time;durP1;ratioP1;P1;durP2;ratioP2;P2;SDS_P1;SDS_P2;PMS_P1;PMS_P2;Temp;Humidity;BMP_temperature;BMP_pressure;BME280_temperature;BME280_humidity;BME280_pressure;Samples;Min_cycle;Max_cycle;Signal;HPM_P1;HPM_P2
2022/08/22 00:01:56;;;;;;;4.93;3.45;;;17.20;70.90;;;;;;5014908;28;20022;-77
2022/08/22 00:04:59;;;;;;;4.00;2.90;;;17.20;71.40;;;;;;5014797;28;20390;-77
2022/08/22 00:08:02;;;;;;;8.75;3.03;;;17.10;71.10;;;;;;5014654;28;20025;-77
2022/08/22 00:10:56;;;;;;;6.53;3.38;;;17.10;71.40;;;;;;5015070;28;20056;-77
2022/08/22 00:13:44;;;;;;;10.18;3.60;;;17.00;71.60;;;;;;5019099;28;20036;-77
2022/08/22 00:16:24;;;;;;;4.57;2.60;;;17.10;71.80;;;;;;5016216;28;20481;-77
2022/08/22 00:18:52;;;;;;;6.38;3.60;;;17.10;71.10;;;;;;5019777;28;20095;-77
2022/08/22 00:21:28;;;;;;;7.28;3.42;;;17.10;70.90;;;;;;5036800;28;20076;-76
2022/08/22 00:24:17;;;;;;;4.57;3.10;;;17.20;70.80;;;;;;5018722;28;20028;-77
2022/08/22 00:27:14;;;;;;;4.80;3.30;;;17.20;70.60;;;;;;5018183;28;20029;-77
2022/08/22 00:29:48;;;;;;;8.32;3.40;;;17.30;70.30;;;;;;5017215;28;20032;-77
2022/08/22 00:32:23;;;;;;;8.00;3.30;;;17.40;70.10;;;;;;5018314;28;20131;-77
2022/08/22 00:35:28;;;;;;;5.05;3.05;;;17.40;69.80;;;;;;5018566;28;20029;-77
2022/08/22 00:38:21;;;;;;;10.25;3.78;;;17.40;69.60;;;;;;5018310;28;20048;-77
2022/08/22 00:41:00;;;;;;;4.13;2.97;;;17.40;69.50;;;;;;5018171;28;20056;-77
2022/08/22 00:44:11;;;;;;;9.38;3.67;;;17.30;70.10;;;;;;5036004;28;20098;-77
2022/08/22 00:47:22;;;;;;;6.10;2.90;;;17.20;70.10;;;;;;5017984;28;20445;-77
2022/08/22 00:50:14;;;;;;;3.67;2.83;;;17.20;70.10;;;;;;4987976;28;20059;-77
2022/08/22 00:53:14;;;;;;;5.20;3.05;;;17.10;70.30;;;;;;5017963;28;20022;-77
2022/08/22 00:55:48;;;;;;;5.57;3.05;;;17.20;70.00;;;;;;5018052;28;20493;-77
2022/08/22 00:58:44;;;;;;;6.97;3.20;;;17.20;69.80;;;;;;5017854;28;20478;-77
2022/08/22 01:01:12;;;;;;;5.47;3.00;;;17.20;70.10;;;;;;5017643;28;20041;-77
2022/08/22 01:03:45;;;;;;;7.20;3.75;;;17.20;70.00;;;;;;5017462;28;20029;-76
2022/08/22 01:06:41;;;;;;;5.70;3.15;;;17.20;69.70;;;;;;5017635;28;20355;-76
2022/08/22 01:09:20;;;;;;;5.28;3.50;;;17.10;70.00;;;;;;5029093;28;20121;-77
2022/08/22 01:12:06;;;;;;;8.80;3.60;;;17.00;70.10;;;;;;5022001;28;20030;-77
2022/08/22 01:14:37;;;;;;;;;;;16.90;70.50;;;;;;5019866;28;20025;-76
2022/08/22 01:17:37;;;;;;;9.10;3.50;;;16.80;70.70;;;;;;5018375;28;19913;-77
2022/08/22 01:20:14;;;;;;;6.25;2.97;;;16.70;71.40;;;;;;5017470;28;20026;-77
2022/08/22 01:22:52;;;;;;;4.78;2.95;;;16.60;71.20;;;;;;5017150;28;20084;-77
2022/08/22 01:25:53;;;;;;;5.45;3.03;;;16.50;71.60;;;;;;5017528;28;20401;-77
2022/08/22 01:29:00;;;;;;;7.18;3.30;;;16.60;71.40;;;;;;5016636;28;20025;-77
2022/08/22 01:31:32;;;;;;;6.18;2.90;;;16.50;71.60;;;;;;5016960;28;20476;-77
2022/08/22 01:34:32;;;;;;;4.88;3.30;;;16.50;71.70;;;;;;5017217;28;20359;-77
2022/08/22 01:37:13;;;;;;;7.35;3.40;;;16.40;71.70;;;;;;5016897;28;20034;-77
2022/08/22 01:39:47;;;;;;;5.80;3.40;;;16.40;71.60;;;;;;5017235;28;20116;-76
2022/08/22 01:42:34;;;;;;;3.90;3.10;;;16.40;71.90;;;;;;5017006;28;20029;-75
2022/08/22 01:45:07;;;;;;;4.70;2.72;;;16.30;72.20;;;;;;5016927;28;20017;-78
2022/08/22 01:47:48;;;;;;;4.80;2.97;;;16.30;72.10;;;;;;5016766;28;20036;-78
2022/08/22 01:50:46;;;;;;;5.65;3.33;;;16.20;72.20;;;;;;5016713;28;20382;-78
2022/08/22 01:53:21;;;;;;;6.60;3.50;;;16.30;72.30;;;;;;5033283;28;20436;-78
2022/08/22 01:55:57;;;;;;;4.45;3.00;;;16.30;72.20;;;;;;5016596;28;20616;-78
2022/08/22 01:58:26;;;;;;;8.95;2.90;;;16.20;72.00;;;;;;5016565;28;20037;-76
2022/08/22 02:01:23;;;;;;;4.35;3.03;;;16.20;71.80;;;;;;5036241;28;20049;-77
2022/08/22 02:04:01;;;;;;;6.30;3.63;;;16.30;71.90;;;;;;5020194;28;20041;-77
2022/08/22 02:06:36;;;;;;;6.57;3.15;;;16.30;72.00;;;;;;5016865;28;20611;-77
2022/08/22 02:09:19;;;;;;;5.47;3.35;;;16.30;71.80;;;;;;5017721;28;20076;-77
2022/08/22 02:12:01;;;;;;;8.43;3.30;;;16.30;71.60;;;;;;5016281;28;20029;-77
2022/08/22 02:15:00;;;;;;;7.75;3.55;;;16.30;71.80;;;;;;5016291;28;20033;-77
2022/08/22 02:17:31;;;;;;;4.97;2.72;;;16.30;71.80;;;;;;5016382;28;20025;-78
2022/08/22 02:20:19;;;;;;;5.72;3.22;;;16.20;72.00;;;;;;5016418;28;20032;-76
2022/08/22 02:23:28;;;;;;;5.80;2.90;;;16.30;71.90;;;;;;5016135;28;20481;-77
2022/08/22 02:26:00;;;;;;;7.70;3.25;;;16.20;71.70;;;;;;4979176;28;20038;-77
2022/08/22 02:28:47;;;;;;;5.43;2.70;;;16.20;71.90;;;;;;5015902;28;20115;-76
2022/08/22 02:31:22;;;;;;;6.15;2.72;;;16.10;71.90;;;;;;5016017;28;20030;-77
2022/08/22 02:33:54;;;;;;;5.40;2.85;;;16.10;72.10;;;;;;5015909;28;20091;-77
2022/08/22 02:36:30;;;;;;;5.78;3.05;;;16.00;72.10;;;;;;5016004;28;20053;-79
2022/08/22 02:39:18;;;;;;;4.38;2.97;;;16.00;72.20;;;;;;5016054;28;20044;-78
2022/08/22 02:41:51;;;;;;;8.18;3.75;;;15.90;72.10;;;;;;5014945;28;20041;-78
2022/08/22 02:44:29;;;;;;;4.93;2.92;;;15.90;72.50;;;;;;5015950;28;20087;-78
2022/08/22 02:47:19;;;;;;;6.13;3.05;;;15.90;72.60;;;;;;5015518;28;20048;-77
2022/08/22 02:49:54;;;;;;;4.60;3.30;;;15.90;72.70;;;;;;5016006;28;20501;-78
2022/08/22 02:52:45;;;;;;;3.33;2.43;;;15.90;72.80;;;;;;5015591;28;20033;-78
2022/08/22 02:55:20;;;;;;;5.28;2.85;;;15.90;72.20;;;;;;5015771;28;20280;-77
2022/08/22 02:58:07;;;;;;;5.15;2.88;;;15.90;72.20;;;;;;5015731;28;20040;-77
2022/08/22 03:01:12;;;;;;;7.38;3.40;;;16.00;71.80;;;;;;5015589;28;20571;-77
2022/08/22 03:03:41;;;;;;;5.95;3.20;;;16.10;72.20;;;;;;5015635;28;20021;-77
2022/08/22 03:06:36;;;;;;;6.40;3.42;;;16.10;71.50;;;;;;5015622;28;20029;-78
2022/08/22 03:09:28;;;;;;;7.53;3.17;;;16.00;71.40;;;;;;5015184;28;20026;-79
2022/08/22 03:12:40;;;;;;;4.45;2.90;;;16.10;71.50;;;;;;4980745;28;20390;-78
2022/08/22 03:15:09;;;;;;;3.65;2.97;;;16.00;71.50;;;;;;4972578;28;20057;-78
2022/08/22 03:17:51;;;;;;;3.55;2.42;;;16.10;71.40;;;;;;5015483;28;20393;-77
2022/08/22 03:20:51;;;;;;;4.53;2.90;;;16.10;71.40;;;;;;5015221;28;20498;-78
2022/08/22 03:23:29;;;;;;;6.10;3.03;;;16.00;71.60;;;;;;5015384;28;20385;-77
2022/08/22 03:26:21;;;;;;;6.20;3.00;;;15.90;72.40;;;;;;5015391;28;20036;-78
2022/08/22 03:29:10;;;;;;;6.57;3.30;;;15.90;72.20;;;;;;5001272;28;20049;-78
2022/08/22 03:31:37;;;;;;;4.90;3.45;;;15.90;72.10;;;;;;5014793;28;20069;-78
2022/08/22 03:34:25;;;;;;;7.68;3.38;;;15.90;71.80;;;;;;5015387;28;20417;-78
2022/08/22 03:37:41;;;;;;;5.65;2.92;;;15.90;71.80;;;;;;5015295;28;20025;-78
2022/08/22 03:40:21;;;;;;;3.97;3.10;;;15.80;72.00;;;;;;4936548;29;20093;-78
2022/08/22 03:43:07;;;;;;;5.13;2.85;;;15.80;72.40;;;;;;5007578;28;20053;-78
2022/08/22 03:46:06;;;;;;;4.22;2.88;;;15.80;72.30;;;;;;5014944;28;20124;-78
2022/08/22 03:49:04;;;;;;;5.18;3.13;;;15.90;72.50;;;;;;5015126;28;20033;-77
2022/08/22 03:52:00;;;;;;;5.40;3.40;;;15.80;72.40;;;;;;5015284;28;20075;-77
2022/08/22 03:55:15;;;;;;;5.55;3.08;;;15.60;72.70;;;;;;5018916;28;20036;-77
2022/08/22 03:58:15;;;;;;;4.25;3.00;;;15.60;72.70;;;;;;5000950;28;20037;-77
2022/08/22 04:00:53;;;;;;;5.07;3.20;;;15.60;73.10;;;;;;5014692;28;20516;-77
2022/08/22 04:03:35;;;;;;;5.30;3.03;;;15.50;73.30;;;;;;5022473;28;20062;-77
2022/08/22 04:06:38;;;;;;;6.07;4.05;;;15.40;73.40;;;;;;5019066;28;20030;-78
2022/08/22 04:09:23;;;;;;;6.47;3.08;;;15.50;73.20;;;;;;5020253;28;20017;-77
2022/08/22 04:12:03;;;;;;;6.30;3.45;;;15.50;73.10;;;;;;5018776;28;20116;-78
2022/08/22 04:14:58;;;;;;;4.65;3.20;;;15.40;73.40;;;;;;5018726;28;20029;-78
2022/08/22 04:17:30;;;;;;;9.20;3.17;;;15.40;73.80;;;;;;5018566;28;20590;-78
2022/08/22 04:20:21;;;;;;;9.90;3.30;;;15.30;74.30;;;;;;5018243;28;20034;-78
2022/08/22 04:23:13;;;;;;;4.82;3.13;;;15.30;74.20;;;;;;5018447;28;20033;-78
2022/08/22 04:25:50;;;;;;;7.40;3.28;;;15.20;74.10;;;;;;5018568;28;20048;-78
2022/08/22 04:28:46;;;;;;;5.95;3.28;;;15.20;74.30;;;;;;5018232;28;20028;-77
2022/08/22 04:31:17;;;;;;;7.18;3.20;;;15.10;74.90;;;;;;5017888;28;20040;-77
2022/08/22 04:33:55;;;;;;;8.35;3.10;;;15.10;74.80;;;;;;5018414;28;20022;-77
2022/08/22 04:36:44;;;;;;;6.03;3.20;;;15.20;74.50;;;;;;5031817;28;20025;-75
2022/08/22 04:39:40;;;;;;;5.80;3.20;;;15.30;74.00;;;;;;5025550;28;20087;-75
2022/08/22 04:42:14;;;;;;;6.35;3.38;;;15.20;74.30;;;;;;5025258;28;20049;-75
2022/08/22 04:44:54;;;;;;;8.75;3.65;;;15.10;74.80;;;;;;5019443;28;20032;-77
2022/08/22 04:47:30;;;;;;;9.40;3.60;;;15.00;75.10;;;;;;5017781;28;20036;-76
2022/08/22 04:50:00;;;;;;;;;;;14.90;75.70;;;;;;5018288;28;20025;-77
2022/08/22 04:52:51;;;;;;;9.25;3.15;;;14.80;75.80;;;;;;5017957;28;19960;-76
2022/08/22 04:55:38;;;;;;;7.13;3.38;;;14.80;76.10;;;;;;5017491;28;20470;-75
2022/08/22 04:58:18;;;;;;;8.25;3.67;;;14.80;76.10;;;;;;5017589;28;20217;-76
2022/08/22 05:01:05;;;;;;;7.43;3.75;;;14.70;76.20;;;;;;5017504;28;20052;-77
2022/08/22 05:03:35;;;;;;;7.00;3.13;;;14.80;76.00;;;;;;5016201;28;20029;-76
2022/08/22 05:06:03;;;;;;;7.65;3.75;;;14.80;75.80;;;;;;5016937;28;20033;-76
2022/08/22 05:08:33;;;;;;;6.15;3.35;;;14.90;75.60;;;;;;5017570;28;20022;-76
2022/08/22 05:11:02;;;;;;;5.88;3.20;;;15.00;75.00;;;;;;5017283;28;20029;-74
2022/08/22 05:13:32;;;;;;;9.43;3.70;;;15.10;74.60;;;;;;5017506;28;20433;-74
2022/08/22 05:16:02;;;;;;;5.22;3.47;;;15.10;74.40;;;;;;5017286;28;20025;-74
2022/08/22 05:18:32;;;;;;;7.45;3.17;;;15.20;74.00;;;;;;5016982;28;20030;-75
2022/08/22 05:21:03;;;;;;;4.82;2.65;;;15.40;73.80;;;;;;5017409;28;20022;-77
2022/08/22 05:23:42;;;;;;;5.50;3.42;;;15.40;73.40;;;;;;5017573;28;20029;-80
2022/08/22 05:26:10;;;;;;;5.82;3.10;;;15.40;73.40;;;;;;5017225;28;20092;-79
2022/08/22 05:28:45;;;;;;;7.97;3.63;;;15.50;73.50;;;;;;5016847;28;20076;-78
2022/08/22 05:31:14;;;;;;;5.15;3.60;;;15.50;73.30;;;;;;5017158;28;20026;-79
2022/08/22 05:33:45;;;;;;;8.15;3.65;;;15.50;73.20;;;;;;5017011;28;20056;-80
2022/08/22 05:36:21;;;;;;;5.63;3.17;;;15.50;73.50;;;;;;5017053;28;20032;-79
2022/08/22 05:39:01;;;;;;;5.95;3.22;;;15.50;73.60;;;;;;5016898;28;20069;-79
2022/08/22 05:41:31;;;;;;;6.72;3.55;;;15.50;73.50;;;;;;5016713;28;20030;-77
2022/08/22 05:43:57;;;;;;;7.55;4.03;;;15.70;73.30;;;;;;5016683;28;20025;-78
2022/08/22 05:46:41;;;;;;;6.05;3.40;;;15.70;73.20;;;;;;5017027;28;20021;-78
2022/08/22 05:49:33;;;;;;;5.55;3.38;;;15.70;72.90;;;;;;5017409;28;20055;-77
2022/08/22 05:52:06;;;;;;;7.35;3.40;;;15.80;72.60;;;;;;5014261;28;20541;-80
2022/08/22 05:54:38;;;;;;;4.75;3.08;;;15.90;72.10;;;;;;5016761;28;20396;-79
2022/08/22 05:57:32;;;;;;;6.60;3.72;;;16.00;71.60;;;;;;5016487;28;20343;-77
2022/08/22 06:00:12;;;;;;;4.78;2.95;;;16.10;71.60;;;;;;5016173;28;20370;-79
2022/08/22 06:02:52;;;;;;;8.68;4.07;;;16.20;70.90;;;;;;5033947;28;20037;-78
2022/08/22 06:05:24;;;;;;;6.90;3.42;;;16.30;70.80;;;;;;5016151;28;20028;-79
2022/08/22 06:08:00;;;;;;;9.82;3.33;;;16.40;70.50;;;;;;5016443;28;20021;-79
2022/08/22 06:10:55;;;;;;;9.05;3.20;;;16.50;70.10;;;;;;5016083;28;20076;-78
2022/08/22 06:13:31;;;;;;;3.88;2.60;;;16.60;70.20;;;;;;5012180;28;20555;-77
2022/08/22 06:16:04;;;;;;;4.38;3.20;;;16.60;70.20;;;;;;5016034;28;20095;-78
2022/08/22 06:18:31;;;;;;;6.70;3.22;;;16.60;70.10;;;;;;5016259;28;20092;-75
2022/08/22 06:21:00;;;;;;;9.40;3.53;;;16.70;70.40;;;;;;5015783;28;20029;-77
2022/08/22 06:23:37;;;;;;;6.85;3.60;;;16.90;70.30;;;;;;5016014;28;20053;-75
2022/08/22 06:26:04;;;;;;;5.25;3.20;;;17.00;69.80;;;;;;5016425;28;20505;-81
2022/08/22 06:28:38;;;;;;;8.93;3.92;;;17.10;69.00;;;;;;5015991;28;20485;-79
2022/08/22 06:31:05;;;;;;;6.97;3.85;;;17.20;68.50;;;;;;5015885;28;20068;-75
2022/08/22 06:33:37;;;;;;;7.25;3.00;;;17.30;68.20;;;;;;5015803;28;20041;-80
2022/08/22 06:36:29;;;;;;;10.80;3.03;;;17.40;68.10;;;;;;5033690;28;20037;-78
2022/08/22 06:38:55;;;;;;;5.22;2.97;;;17.50;68.10;;;;;;5032342;28;20140;-78
2022/08/22 06:41:23;;;;;;;6.15;2.97;;;17.60;67.10;;;;;;5015790;28;20104;-78
2022/08/22 06:43:51;;;;;;;4.72;2.83;;;17.70;66.70;;;;;;5015526;28;20120;-76
2022/08/22 06:46:18;;;;;;;6.43;3.15;;;17.90;65.90;;;;;;5015761;28;20030;-77
2022/08/22 06:48:46;;;;;;;7.53;3.20;;;18.00;65.60;;;;;;5015726;28;20032;-80
2022/08/22 06:51:14;;;;;;;15.52;4.13;;;18.20;65.30;;;;;;5015413;28;20026;-83
2022/08/22 06:53:47;;;;;;;8.82;3.22;;;18.40;65.60;;;;;;5016085;28;20029;-77
2022/08/22 06:56:24;;;;;;;11.13;3.50;;;18.70;65.00;;;;;;5033018;28;20044;-78
2022/08/22 06:58:56;;;;;;;4.82;2.83;;;19.00;64.40;;;;;;5014813;28;20033;-83
2022/08/22 07:01:25;;;;;;;7.93;2.65;;;19.20;63.50;;;;;;5015317;28;20523;-74
2022/08/22 07:04:02;;;;;;;5.82;3.13;;;19.40;61.40;;;;;;5033051;28;20088;-80
2022/08/22 07:06:31;;;;;;;3.85;2.85;;;19.50;61.00;;;;;;5014395;28;20036;-85
2022/08/22 07:09:00;;;;;;;5.13;3.30;;;19.50;60.80;;;;;;5019145;28;20115;-78
2022/08/22 07:11:31;;;;;;;9.35;2.80;;;19.60;60.80;;;;;;5032414;28;20021;-83
2022/08/22 07:14:01;;;;;;;5.78;2.78;;;19.70;60.80;;;;;;5033031;28;20036;-88
2022/08/22 07:16:58;;;;;;;4.60;2.72;;;19.90;60.80;;;;;;5032682;28;20029;-83
2022/08/22 07:19:40;;;;;;;8.57;3.70;;;20.00;60.40;;;;;;5031705;28;20061;-85
2022/08/22 07:22:13;;;;;;;4.38;3.25;;;20.30;60.40;;;;;;5032446;28;20025;-86
2022/08/22 07:24:46;;;;;;;5.20;3.17;;;20.40;60.00;;;;;;5032296;28;20456;-88
2022/08/22 07:27:42;;;;;;;5.47;3.30;;;20.40;60.50;;;;;;5036091;28;20033;-79
2022/08/22 07:30:14;;;;;;;3.67;2.92;;;20.50;59.80;;;;;;5041945;28;20036;-84
2022/08/22 07:32:41;;;;;;;10.63;3.90;;;20.60;59.20;;;;;;5036951;28;20116;-84
2022/08/22 07:35:16;;;;;;;6.53;2.90;;;20.70;58.90;;;;;;5048086;28;20030;-77
2022/08/22 07:38:02;;;;;;;7.80;3.67;;;20.90;58.50;;;;;;5042699;28;20029;-82
2022/08/22 07:40:51;;;;;;;;;;;21.00;58.40;;;;;;5037261;28;20089;-85
2022/08/22 07:43:30;;;;;;;6.28;3.05;;;21.10;57.70;;;;;;5030471;28;19954;-82
2022/08/22 07:46:27;;;;;;;6.07;2.78;;;21.20;57.30;;;;;;5036012;28;20025;-84
2022/08/22 07:48:59;;;;;;;6.30;3.17;;;21.30;57.00;;;;;;5036576;28;20029;-87
2022/08/22 07:51:34;;;;;;;6.25;3.05;;;21.30;57.20;;;;;;5036895;28;20052;-85
2022/08/22 07:54:06;;;;;;;5.00;2.95;;;21.20;56.80;;;;;;5037035;28;20029;-86
2022/08/22 07:56:58;;;;;;;5.18;2.95;;;21.40;55.90;;;;;;5036514;28;20028;-86
2022/08/22 07:59:27;;;;;;;6.00;3.15;;;21.70;54.70;;;;;;5036497;28;20046;-87
2022/08/22 08:01:57;;;;;;;6.70;3.17;;;21.80;53.20;;;;;;5019912;28;20120;-79
2022/08/22 08:04:27;;;;;;;5.00;3.05;;;21.80;53.70;;;;;;5035812;28;20112;-81
2022/08/22 08:06:57;;;;;;;3.53;2.70;;;21.80;53.50;;;;;;5036276;28;20040;-89
2022/08/22 08:09:26;;;;;;;6.10;3.10;;;21.70;53.60;;;;;;5041675;28;20036;-87
2022/08/22 08:11:53;;;;;;;3.10;2.75;;;21.70;54.50;;;;;;5042010;28;20022;-87
2022/08/22 08:14:21;;;;;;;8.32;2.75;;;21.80;53.50;;;;;;5048618;28;20025;-77
2022/08/22 08:17:14;;;;;;;3.83;2.45;;;21.70;53.60;;;;;;5054781;28;20026;-80
2022/08/22 08:19:41;;;;;;;6.47;2.38;;;22.00;53.30;;;;;;5048162;28;20112;-77
2022/08/22 08:22:15;;;;;;;4.13;2.75;;;22.10;52.60;;;;;;5055660;28;20029;-85
2022/08/22 08:24:42;;;;;;;3.50;2.47;;;22.30;51.70;;;;;;5055837;28;20017;-79
2022/08/22 08:30:03;;;;;;;9.57;3.03;;;22.60;50.00;;;;;;5041151;28;20100;-82
2022/08/22 08:32:34;;;;;;;6.00;2.67;;;22.70;49.40;;;;;;5035845;28;20025;-85
2022/08/22 08:35:15;;;;;;;5.82;3.08;;;22.90;49.20;;;;;;5035337;28;20101;-79
2022/08/22 08:37:53;;;;;;;10.77;2.78;;;22.90;50.00;;;;;;5035120;28;20091;-81
2022/08/22 08:40:31;;;;;;;5.47;2.90;;;22.90;49.00;;;;;;5036008;28;20022;-80
2022/08/22 08:43:33;;;;;;;7.28;3.47;;;22.90;50.20;;;;;;5035208;28;20029;-76
2022/08/22 08:46:02;;;;;;;5.07;2.80;;;23.00;49.90;;;;;;5035587;28;20022;-87
2022/08/22 08:48:56;;;;;;;6.47;2.85;;;23.10;48.30;;;;;;5035639;28;20477;-83
2022/08/22 08:51:33;;;;;;;5.32;2.80;;;23.30;48.90;;;;;;5035351;28;20029;-80
2022/08/22 08:54:23;;;;;;;9.88;2.97;;;23.60;47.50;;;;;;5034922;28;20025;-81
2022/08/22 08:57:14;;;;;;;3.10;2.20;;;23.60;45.90;;;;;;5035870;28;20026;-86
2022/08/22 09:00:13;;;;;;;5.70;2.83;;;23.80;45.90;;;;;;5034555;28;20115;-87
2022/08/22 09:03:13;;;;;;;5.75;2.67;;;23.90;46.90;;;;;;5034875;28;20363;-82
2022/08/22 09:05:59;;;;;;;6.25;3.97;;;24.10;46.80;;;;;;5034826;28;20108;-88
2022/08/22 09:08:35;;;;;;;4.07;3.53;;;24.10;45.40;;;;;;5034805;28;20489;-89
2022/08/22 09:11:26;;;;;;;7.72;2.75;;;24.20;44.10;;;;;;5035926;28;20061;-83
2022/08/22 09:14:07;;;;;;;6.30;2.95;;;24.30;43.90;;;;;;4997803;28;20033;-82
2022/08/22 09:17:05;;;;;;;4.57;2.92;;;24.20;44.00;;;;;;4997577;28;20030;-86
2022/08/22 09:19:55;;;;;;;4.30;2.50;;;24.30;44.80;;;;;;4997601;28;20128;-84
2022/08/22 09:23:05;;;;;;;5.07;2.70;;;24.20;44.30;;;;;;4997478;28;20045;-87
2022/08/22 09:25:49;;;;;;;7.03;3.70;;;24.20;44.60;;;;;;4981816;28;20038;-83
2022/08/22 09:28:52;;;;;;;7.90;6.00;;;24.30;44.40;;;;;;4996153;28;20116;-76
2022/08/22 09:31:59;;;;;;;5.15;3.00;;;24.40;43.80;;;;;;4993888;28;20038;-80
2022/08/22 09:34:53;;;;;;;5.13;2.65;;;24.30;42.70;;;;;;4988881;28;20038;-80
2022/08/22 09:38:35;;;;;;;4.80;2.63;;;24.30;40.90;;;;;;4996674;28;20030;-79
2022/08/22 09:41:23;;;;;;;5.00;2.80;;;24.50;41.00;;;;;;4900209;29;20035;-80
2022/08/22 09:44:17;;;;;;;4.97;2.17;;;24.80;38.60;;;;;;4920565;29;20028;-82
2022/08/22 09:47:20;;;;;;;9.50;2.72;;;25.10;37.20;;;;;;5017476;28;20029;-81
2022/08/22 09:49:58;;;;;;;3.90;2.28;;;25.30;36.30;;;;;;5033508;28;20115;-81
2022/08/22 09:53:01;;;;;;;6.75;2.50;;;25.50;34.10;;;;;;5034784;28;20159;-81
2022/08/22 09:55:52;;;;;;;4.20;2.67;;;25.70;34.70;;;;;;5033382;28;20028;-79
2022/08/22 09:58:41;;;;;;;5.82;2.90;;;25.90;35.20;;;;;;5033120;28;20546;-79
2022/08/22 10:01:31;;;;;;;5.53;2.42;;;25.90;32.80;;;;;;5033080;28;20132;-81
2022/08/22 10:04:13;;;;;;;5.35;2.80;;;26.10;33.70;;;;;;5036295;28;20513;-78
2022/08/22 10:07:19;;;;;;;4.57;2.75;;;26.20;33.00;;;;;;5037613;28;20026;-81
2022/08/22 10:10:24;;;;;;;7.53;3.33;;;26.10;33.20;;;;;;5034562;28;20021;-77
2022/08/22 10:13:14;;;;;;;3.72;2.58;;;26.20;34.50;;;;;;5034270;28;20037;-77
2022/08/22 10:15:49;;;;;;;5.43;2.70;;;26.50;34.10;;;;;;5037480;28;20026;-79
2022/08/22 10:18:25;;;;;;;5.03;2.70;;;26.90;33.10;;;;;;5032830;28;20037;-78
2022/08/22 10:21:28;;;;;;;5.07;2.70;;;27.20;32.90;;;;;;5032683;28;20692;-78
2022/08/22 10:24:14;;;;;;;7.97;2.97;;;27.30;33.10;;;;;;5032277;28;20028;-78
2022/08/22 10:26:43;;;;;;;2.88;2.17;;;27.20;31.10;;;;;;5031966;28;20028;-79
2022/08/22 10:29:44;;;;;;;4.43;2.50;;;27.00;32.20;;;;;;5031759;28;20059;-78
2022/08/22 10:32:33;;;;;;;5.03;2.85;;;26.90;32.60;;;;;;5032043;28;20025;-79
2022/08/22 10:35:09;;;;;;;7.47;2.85;;;27.00;32.20;;;;;;5031899;28;20140;-77
2022/08/22 10:37:54;;;;;;;5.43;2.97;;;27.20;32.30;;;;;;5031964;28;20059;-78
2022/08/22 10:40:40;;;;;;;3.50;2.53;;;27.40;33.00;;;;;;5032042;28;20025;-78
2022/08/22 10:43:22;;;;;;;4.65;2.70;;;27.50;31.40;;;;;;5031965;28;20025;-77
2022/08/22 10:45:57;;;;;;;5.93;2.90;;;27.60;30.50;;;;;;5032169;28;20025;-77
2022/08/22 10:48:36;;;;;;;7.95;2.70;;;27.70;29.70;;;;;;5032044;28;20021;-79
2022/08/22 10:51:12;;;;;;;4.75;2.60;;;27.50;30.00;;;;;;5032089;28;20376;-78
2022/08/22 10:53:41;;;;;;;4.32;2.67;;;27.30;29.60;;;;;;5031849;28;20022;-77
2022/08/22 10:56:24;;;;;;;4.43;2.80;;;27.30;30.10;;;;;;5031876;28;20455;-77
2022/08/22 10:59:21;;;;;;;3.63;2.90;;;27.70;30.90;;;;;;5032246;28;20506;-76
2022/08/22 11:02:10;;;;;;;5.50;2.85;;;28.10;31.40;;;;;;5030822;28;20025;-79
2022/08/22 11:05:13;;;;;;;4.72;2.50;;;28.30;29.20;;;;;;5031496;28;20028;-79
2022/08/22 11:08:05;;;;;;;4.95;2.50;;;28.50;28.60;;;;;;5031580;28;20087;-77
2022/08/22 11:11:04;;;;;;;5.07;2.42;;;28.60;27.30;;;;;;5031304;28;20071;-76
2022/08/22 11:13:38;;;;;;;6.10;2.67;;;28.80;27.50;;;;;;5031602;28;20041;-77
2022/08/22 11:16:15;;;;;;;5.18;2.78;;;29.00;26.50;;;;;;5031614;28;20040;-76
2022/08/22 11:18:46;;;;;;;3.88;2.40;;;29.00;25.00;;;;;;5031054;28;20083;-76
2022/08/22 11:21:30;;;;;;;5.40;2.90;;;29.30;26.90;;;;;;5031956;28;20021;-79
2022/08/22 11:24:16;;;;;;;4.80;2.05;;;29.40;25.20;;;;;;5031802;28;20025;-77
2022/08/22 11:26:59;;;;;;;4.25;2.60;;;29.70;24.60;;;;;;5031319;28;20473;-75
2022/08/22 11:29:41;;;;;;;2.97;2.00;;;29.80;24.90;;;;;;5031532;28;20104;-77
2022/08/22 11:32:16;;;;;;;8.45;2.78;;;29.80;23.00;;;;;;5031581;28;20060;-82
2022/08/22 11:34:50;;;;;;;5.13;2.45;;;29.70;22.70;;;;;;5031793;28;20057;-78
2022/08/22 11:37:44;;;;;;;3.33;2.33;;;29.50;24.10;;;;;;5031225;28;20401;-78
2022/08/22 11:40:36;;;;;;;4.93;2.75;;;29.50;23.40;;;;;;5031739;28;20121;-78
2022/08/22 11:43:34;;;;;;;3.97;2.40;;;29.50;23.90;;;;;;5005190;28;20029;-78
2022/08/22 11:46:23;;;;;;;4.35;2.35;;;29.50;23.30;;;;;;5031223;28;20037;-79
2022/08/22 11:49:19;;;;;;;4.95;2.47;;;29.80;23.50;;;;;;5031230;28;20025;-78
2022/08/22 11:51:56;;;;;;;;;;;30.10;24.10;;;;;;5032132;28;20501;-78
2022/08/22 11:54:35;;;;;;;4.75;2.40;;;30.40;22.30;;;;;;5032633;28;19909;-78
2022/08/22 11:57:08;;;;;;;3.83;2.50;;;30.60;21.10;;;;;;5031471;28;20021;-77
2022/08/22 11:59:59;;;;;;;6.82;2.55;;;30.10;22.30;;;;;;5032423;28;20382;-78
2022/08/22 12:02:57;;;;;;;4.68;2.33;;;30.00;21.90;;;;;;5031283;28;20029;-77
2022/08/22 12:05:40;;;;;;;5.97;2.67;;;29.80;22.30;;;;;;5030979;28;20026;-79
2022/08/22 12:08:24;;;;;;;3.83;2.38;;;30.00;22.70;;;;;;5031072;28;20068;-78
2022/08/22 12:11:10;;;;;;;5.57;2.15;;;30.10;23.00;;;;;;5031090;28;20488;-78
2022/08/22 12:13:52;;;;;;;3.50;1.98;;;29.90;22.20;;;;;;5032649;28;20124;-76
2022/08/22 12:16:38;;;;;;;6.50;2.50;;;30.10;24.00;;;;;;5034055;28;20064;-76
2022/08/22 12:19:22;;;;;;;2.47;1.90;;;30.50;23.60;;;;;;5033770;28;20033;-77
2022/08/22 12:22:23;;;;;;;2.47;2.05;;;30.90;22.20;;;;;;5034753;28;20457;-77
2022/08/22 12:25:13;;;;;;;3.17;2.00;;;31.30;22.50;;;;;;5034501;28;20112;-77
2022/08/22 12:27:45;;;;;;;3.97;2.17;;;31.60;20.80;;;;;;5035689;28;20029;-78
2022/08/22 12:30:58;;;;;;;4.28;2.20;;;31.60;20.00;;;;;;5034496;28;20402;-78
2022/08/22 12:33:47;;;;;;;2.63;2.15;;;31.30;21.40;;;;;;4974417;28;20033;-76
2022/08/22 12:36:37;;;;;;;4.93;1.92;;;31.20;20.70;;;;;;5034622;28;20030;-78
2022/08/22 12:39:35;;;;;;;5.80;2.60;;;31.50;20.80;;;;;;5034161;28;20063;-77
2022/08/22 12:42:09;;;;;;;4.70;2.55;;;31.70;19.90;;;;;;5000982;28;20501;-77
2022/08/22 12:45:13;;;;;;;3.47;2.75;;;31.10;20.20;;;;;;5034459;28;20025;-76
2022/08/22 12:48:07;;;;;;;3.95;2.33;;;30.90;19.60;;;;;;5034299;28;20057;-77
2022/08/22 12:50:38;;;;;;;3.85;2.08;;;31.20;21.10;;;;;;5034117;28;20026;-78
2022/08/22 12:53:10;;;;;;;3.08;2.22;;;31.40;20.10;;;;;;5034268;28;20032;-77
2022/08/22 12:56:00;;;;;;;3.75;2.75;;;31.30;19.60;;;;;;5034094;28;20032;-78
2022/08/22 12:58:38;;;;;;;5.68;2.33;;;31.20;20.30;;;;;;5033869;28;20037;-77
2022/08/22 13:01:07;;;;;;;3.70;2.38;;;31.40;19.50;;;;;;5033576;28;20041;-77
2022/08/22 13:03:55;;;;;;;3.53;2.00;;;31.60;19.20;;;;;;5034227;28;20021;-77
2022/08/22 13:06:46;;;;;;;2.85;2.15;;;31.80;20.30;;;;;;5033659;28;20136;-77
2022/08/22 13:09:19;;;;;;;3.58;2.53;;;32.40;18.90;;;;;;5033718;28;20029;-77
2022/08/22 13:11:50;;;;;;;3.10;2.03;;;32.30;19.50;;;;;;5033943;28;20474;-77
2022/08/22 13:14:22;;;;;;;3.78;2.10;;;32.50;20.00;;;;;;5033543;28;20489;-76
2022/08/22 13:16:53;;;;;;;3.80;2.33;;;32.80;19.90;;;;;;5033860;28;20120;-77
2022/08/22 13:19:26;;;;;;;3.20;1.85;;;33.00;20.20;;;;;;5033706;28;20029;-77
2022/08/22 13:22:12;;;;;;;4.20;2.40;;;33.00;19.90;;;;;;5033402;28;20026;-76
2022/08/22 13:24:44;;;;;;;4.03;2.10;;;32.90;19.80;;;;;;5032588;28;20030;-76
2022/08/22 13:27:20;;;;;;;4.65;2.28;;;32.90;19.80;;;;;;5033285;28;20025;-76
2022/08/22 13:30:00;;;;;;;4.25;2.25;;;32.70;19.20;;;;;;5033344;28;20036;-77
2022/08/22 13:32:36;;;;;;;4.55;2.53;;;32.50;18.70;;;;;;5016910;28;20028;-77
2022/08/22 13:35:02;;;;;;;7.10;2.28;;;32.00;19.50;;;;;;5033493;28;20382;-77
2022/08/22 13:37:38;;;;;;;2.75;2.00;;;31.50;19.60;;;;;;5033053;28;20021;-76
2022/08/22 13:40:11;;;;;;;4.70;2.30;;;31.00;20.10;;;;;;5032968;28;20175;-76
2022/08/22 13:42:45;;;;;;;7.47;2.22;;;30.60;21.10;;;;;;5032896;28;20057;-77
2022/08/22 13:45:20;;;;;;;4.65;1.92;;;30.20;23.60;;;;;;5032800;28;20508;-76
2022/08/22 13:47:53;;;;;;;4.93;2.65;;;29.90;24.00;;;;;;5033179;28;20029;-76
2022/08/22 13:50:23;;;;;;;3.10;2.50;;;29.80;23.80;;;;;;5032828;28;20025;-76
2022/08/22 13:53:01;;;;;;;2.70;2.30;;;29.70;23.60;;;;;;5033134;28;20378;-76
2022/08/22 13:55:49;;;;;;;6.28;2.65;;;29.70;23.90;;;;;;5033069;28;20022;-76
2022/08/22 13:58:43;;;;;;;4.50;2.60;;;30.20;23.40;;;;;;5032558;28;20041;-76
2022/08/22 14:01:43;;;;;;;3.88;2.60;;;30.50;22.50;;;;;;5033984;28;20073;-77
2022/08/22 14:04:24;;;;;;;5.38;2.45;;;30.60;21.30;;;;;;5029737;28;20040;-76
2022/08/22 14:07:05;;;;;;;4.85;2.70;;;30.80;21.50;;;;;;5032883;28;20049;-76
2022/08/22 14:10:18;;;;;;;3.25;2.38;;;31.00;21.80;;;;;;5032573;28;20026;-75
2022/08/22 14:12:56;;;;;;;3.17;2.35;;;31.40;20.70;;;;;;5020338;28;20520;-76